Latest Weather Observations for Cummins Airport

IDS60801

Issued at 9:31 pm CST Sunday 2 August 2015 (issued every 30 minutes, with the page automatically refreshed every 10 minutes)

About weather observations | Map of weather stations | Latest weather observations for SA | Other Formats
Station Details ID: 018217 Name: CUMMINS AERO Lat: -34.25 Lon: 135.71 Height: 60.11 m
Data from the previous 72 hours. | See also: Recent months at Cummins Airport
Date/Time
CST
Temp
°C
App
Temp
°C
Dew
Point
Rel
Hum
%
Delta-T
°C
Wind Press
QNH
hPa
Press
MSL
hPa
Rain
since 9 am
mm
Dir
 
Spd
km/h
Gust
km/h
Spd
kts
Gust
kts
02/09:30pm 8.7 8.3 8.4 98 0.1 CALM 0 4 0 2 1025.1 1025.2 0.2
02/09:00pm 9.6 8.3 9.1 97 0.2 WNW 6 9 3 5 1024.9 1025.0 0.2
02/08:30pm 8.8 8.5 8.5 98 0.1 CALM 0 0 0 0 1024.7 1024.8 0.2
02/08:00pm 9.2 8.5 8.4 95 0.4 W 2 6 1 3 1024.5 1024.6 0.2
02/07:30pm 8.9 8.1 8.0 94 0.4 SW 2 7 1 4 1024.4 1024.5 0.2
02/07:00pm 9.7 7.2 8.3 91 0.7 WSW 11 15 6 8 1024.1 1024.2 0.2
02/06:30pm 10.0 7.6 8.6 91 0.7 WSW 11 24 6 13 1024.0 1024.1 0.2
02/06:00pm 11.1 7.7 9.0 87 1.0 SW 17 26 9 14 1023.6 1023.7 0.2
02/05:30pm 12.3 8.0 9.3 82 1.5 W 22 37 12 20 1023.4 1023.5 0.2
02/05:00pm 12.6 8.8 8.9 78 1.9 WSW 19 24 10 13 1023.0 1023.1 0.2
02/04:30pm 13.3 8.1 10.1 81 1.6 W 28 35 15 19 1022.8 1022.9 0.2
02/04:00pm 12.7 9.8 10.9 89 0.9 WSW 17 24 9 13 1022.7 1022.8 0.2
02/03:30pm 13.0 7.8 10.2 83 1.4 WSW 28 37 15 20 1022.7 1022.8 0.0
02/03:00pm 13.3 8.3 11.0 86 1.2 WSW 28 35 15 19 1022.4 1022.5 0.0
02/02:42pm 12.6 6.7 10.5 87 1.1 WSW 32 50 17 27 1022.4 1022.5 0.0
02/02:30pm 13.4 7.5 10.4 82 1.6 W 32 41 17 22 1022.2 1022.3 0.0
02/02:00pm 12.2 5.9 10.9 92 0.7 W 35 46 19 25 1022.4 1022.5 0.0
02/01:30pm 13.4 7.0 9.3 76 2.1 W 33 44 18 24 1022.0 1022.1 0.0
02/01:00pm 13.8 7.1 9.6 76 2.2 W 35 44 19 24 1022.1 1022.2 0.0
02/12:30pm 12.7 7.7 10.8 88 1.0 W 28 37 15 20 1022.5 1022.6 0.0
02/12:00pm 13.1 8.4 10.5 84 1.3 WSW 26 35 14 19 1022.6 1022.7 0.0
02/11:30am 13.5 8.6 10.1 80 1.8 W 26 33 14 18 1022.7 1022.8 0.0
02/11:00am 12.7 6.4 7.4 70 2.6 WSW 30 41 16 22 1022.7 1022.8 0.0
02/10:30am 12.1 6.6 7.6 74 2.2 WSW 26 37 14 20 1022.9 1023.0 0.0
02/10:00am 11.5 8.6 9.6 88 1.0 W 15 22 8 12 1022.7 1022.8 0.0
02/09:30am 10.9 8.4 9.8 93 0.6 W 13 17 7 9 1022.4 1022.5 0.0
02/09:00am 10.3 7.9 8.6 89 0.8 W 11 20 6 11 1022.2 1022.3 4.4
02/08:30am 8.9 6.7 8.0 94 0.4 W 9 13 5 7 1021.9 1022.0 4.4
02/08:00am 7.5 5.1 6.8 95 0.3 W 9 13 5 7 1021.7 1021.8 4.4
02/07:30am 6.6 3.6 5.9 95 0.3 NW 11 11 6 6 1021.3 1021.4 4.4
02/07:00am 7.9 6.7 6.5 91 0.6 WNW 2 6 1 3 1021.1 1021.2 4.4
02/06:30am 8.3 5.8 6.6 89 0.8 WNW 9 13 5 7 1020.9 1021.0 4.4
02/06:00am 8.2 5.8 6.8 91 0.6 WNW 9 11 5 6 1020.6 1020.7 4.4
02/05:30am 8.1 6.1 7.0 93 0.5 WSW 7 9 4 5 1020.3 1020.4 4.4
02/05:00am 7.9 5.9 7.0 94 0.4 SW 7 9 4 5 1020.2 1020.3 4.4
02/04:30am 7.9 5.8 6.8 93 0.5 SW 7 11 4 6 1020.2 1020.3 4.4
02/04:00am 8.5 3.1 6.5 87 0.9 WSW 24 33 13 18 1020.4 1020.5 4.4
02/03:30am 8.3 5.6 7.2 93 0.5 WSW 11 17 6 9 1020.2 1020.3 4.4
02/03:00am 7.9 5.7 7.9 100 0.0 W 9 13 5 7 1020.2 1020.3 4.4
02/02:30am 7.7 6.0 7.6 99 0.0 WNW 6 9 3 5 1020.1 1020.2 4.4
02/02:00am 7.8 7.3 7.7 99 0.0 CALM 0 0 0 0 1020.2 1020.3 4.4
02/01:30am 7.9 7.4 7.8 99 0.0 CALM 0 0 0 0 1020.2 1020.3 4.4
02/01:00am 8.2 7.8 8.1 99 0.0 CALM 0 0 0 0 1020.3 1020.4 4.4
02/12:30am 8.2 6.6 8.1 99 0.0 WNW 6 7 3 4 1020.4 1020.5 4.4
02/12:00am 8.1 6.5 8.0 99 0.0 WNW 6 9 3 5 1020.6 1020.7 4.4
 
Date/Time
CST
Temp
°C
App
Temp
°C
Dew
Point
Rel
Hum
%
Delta-T
°C
Wind Press
QNH
hPa
Press
MSL
hPa
Rain
since 9 am
mm
Dir
 
Spd
km/h
Gust
km/h
Spd
kts
Gust
kts
01/11:30pm 8.2 7.8 8.1 99 0.0 CALM 0 0 0 0 1020.3 1020.4 4.4
01/11:00pm 8.2 7.8 8.1 99 0.0 CALM 0 0 0 0 1020.3 1020.4 4.4
01/10:30pm 8.2 7.8 8.1 99 0.0 CALM 0 0 0 0 1020.4 1020.5 4.4
01/10:00pm 8.4 8.0 8.3 99 0.0 CALM 0 0 0 0 1020.2 1020.3 4.4
01/09:30pm 8.4 8.0 8.3 99 0.0 CALM 0 6 0 3 1020.2 1020.3 4.4
01/09:00pm 8.4 7.6 8.3 99 0.0 WNW 2 6 1 3 1020.1 1020.2 4.4
01/08:30pm 8.5 7.0 8.4 99 0.0 WSW 6 7 3 4 1019.7 1019.8 4.4
01/08:00pm 8.5 6.4 8.4 99 0.0 SW 9 13 5 7 1019.5 1019.6 4.4
01/07:30pm 8.6 7.8 8.3 98 0.1 NW 2 11 1 6 1019.0 1019.1 4.4
01/07:00pm 8.6 7.0 8.0 96 0.3 NE 6 7 3 4 1018.3 1018.4 4.4
01/06:30pm 8.6 6.1 8.0 96 0.3 ENE 11 13 6 7 1017.7 1017.7 4.4
01/06:00pm 8.9 7.2 8.5 97 0.2 ENE 7 9 4 5 1017.4 1017.4 3.6
01/05:30pm 9.2 6.2 7.8 91 0.7 SE 13 19 7 10 1017.6 1017.6 3.0
01/05:00pm 9.6 8.1 9.0 96 0.3 SSE 7 9 4 5 1017.6 1017.6 2.2
01/04:30pm 10.2 6.7 8.8 91 0.7 SE 17 22 9 12 1017.4 1017.4 1.6
01/04:00pm 10.7 8.1 9.3 91 0.7 SE 13 17 7 9 1016.8 1016.8 1.4
01/03:30pm 11.0 8.8 9.3 89 0.9 S 11 17 6 9 1016.6 1016.6 1.4
01/03:00pm 11.3 7.9 9.0 86 1.1 SSE 17 20 9 11 1016.2 1016.2 1.4
01/02:30pm 11.6 8.3 9.7 88 1.0 SSE 17 26 9 14 1016.3 1016.3 1.4
01/02:00pm 11.6 8.9 10.2 91 0.7 S 15 20 8 11 1016.8 1016.8 1.4
01/01:30pm 11.7 9.4 10.3 91 0.7 ESE 13 17 7 9 1016.1 1016.1 1.4
01/01:00pm 11.8 9.1 10.5 92 0.7 E 15 17 8 9 1016.2 1016.2 1.4
01/12:30pm 11.5 10.3 10.4 93 0.6 SSE 7 9 4 5 1017.2 1017.2 1.4
01/12:00pm 11.1 7.9 10.0 93 0.6 ESE 17 22 9 12 1016.5 1016.5 1.4
01/11:30am 11.2 8.4 10.1 93 0.6 S 15 20 8 11 1018.2 1018.3 1.4
01/11:00am 10.9 9.4 10.4 97 0.3 WSW 9 13 5 7 1019.4 1019.5 1.0
01/10:35am 10.8 8.7 9.7 93 0.6 ESE 11 19 6 10 1018.7 1018.8 0.2
01/10:30am 10.9 8.1 10.0 94 0.5 ESE 15 20 8 11 1016.7 1016.7 0.2
01/10:00am 10.9 9.4 10.7 99 0.1 SSE 9 11 5 6 1018.0 1018.1 0.2
01/09:30am 10.6 8.2 10.1 97 0.3 WSW 13 20 7 11 1020.0 1020.1 0.0
01/09:26am 10.6 8.9 10.0 96 0.3 SSW 9 15 5 8 1019.0 1019.1 0.0
01/09:00am 10.6 9.0 10.3 98 0.2 S 9 13 5 7 1016.8 1016.9 15.6
01/08:30am 10.4 8.0 10.2 99 0.1 SSE 13 15 7 8 1016.2 1016.2 15.6
01/08:00am 10.4 8.1 10.4 100 0.0 SE 13 19 7 10 1016.0 1016.0 15.4
01/07:30am 10.4 7.7 10.2 99 0.1 SSE 15 20 8 11 1015.8 1015.8 15.0
01/07:00am 10.7 9.2 10.7 100 0.0 SW 9 15 5 8 1016.4 1016.4 13.4
01/06:30am 10.8 7.8 10.8 100 0.0 S 17 20 9 11 1014.9 1014.9 13.4
01/06:00am 10.9 9.1 10.9 100 0.0 S 11 15 6 8 1015.4 1015.4 12.6
01/05:30am 11.2 9.5 11.2 100 0.0 SSW 11 13 6 7 1014.9 1014.9 11.4
01/05:00am 11.5 10.3 11.5 100 0.0 S 9 13 5 7 1014.5 1014.5 10.0
01/04:30am 11.8 10.7 11.8 100 0.0 SSW 9 13 5 7 1014.3 1014.3 10.0
01/04:00am 12.0 10.5 12.0 100 0.0 SSW 11 13 6 7 1014.4 1014.4 9.8
01/03:30am 12.1 9.9 12.1 100 0.0 SW 15 19 8 10 1014.2 1014.2 9.2
01/03:00am 12.4 9.9 12.4 100 0.0 SW 17 20 9 11 1014.5 1014.5 8.6
01/02:30am 12.9 8.9 12.9 100 0.0 SW 26 39 14 21 1013.5 1013.5 7.8
01/02:00am 13.4 11.6 13.4 100 0.0 NW 15 22 8 12 1013.3 1013.3 7.4
01/01:30am 13.0 10.7 13.0 100 0.0 NNW 17 20 9 11 1013.2 1013.2 6.8
01/01:00am 13.0 10.3 13.0 100 0.0 NNW 19 26 10 14 1013.8 1013.8 4.6
01/12:30am 13.1 10.4 12.9 99 0.1 NW 19 24 10 13 1013.6 1013.6 2.4
01/12:00am 13.2 10.5 12.9 98 0.2 NNW 19 24 10 13 1014.0 1014.0 0.4
 
Date/Time
CST
Temp
°C
App
Temp
°C
Dew
Point
Rel
Hum
%
Delta-T
°C
Wind Press
QNH
hPa
Press
MSL
hPa
Rain
since 9 am
mm
Dir
 
Spd
km/h
Gust
km/h
Spd
kts
Gust
kts
31/11:30pm 13.2 10.8 12.7 97 0.3 NNW 17 22 9 12 1013.1 1013.1 0.2
31/11:00pm 13.2 10.3 12.9 98 0.2 NNW 20 28 11 15 1013.6 1013.6 0.2
31/10:30pm 13.0 10.3 12.8 99 0.1 NNW 19 26 10 14 1013.8 1013.8 0.2
31/10:00pm 12.8 10.8 12.6 99 0.1 NNW 15 20 8 11 1014.0 1014.0 0.2
31/09:30pm 12.8 10.0 12.5 98 0.2 NNW 19 26 10 14 1014.0 1014.0 0.2
31/09:00pm 12.6 10.5 12.3 98 0.2 NNW 15 26 8 14 1014.2 1014.2 0.2
31/08:30pm 12.5 11.0 12.0 97 0.3 N 11 15 6 8 1014.0 1014.0 0.2
31/08:00pm 12.8 10.2 12.0 95 0.4 NNW 17 20 9 11 1014.0 1014.0 0.2
31/07:30pm 13.0 11.2 12.2 95 0.4 NNW 13 19 7 10 1014.2 1014.2 0.2
31/07:00pm 13.1 11.3 12.2 94 0.5 NNW 13 19 7 10 1014.3 1014.3 0.2
31/06:30pm 13.6 11.9 12.3 92 0.7 NW 13 19 7 10 1014.3 1014.3 0.0
31/06:00pm 13.7 13.2 12.8 94 0.5 NNW 7 11 4 6 1014.1 1014.1 0.0
31/05:30pm 14.5 14.0 12.5 88 1.1 NW 7 11 4 6 1013.7 1013.7 0.0
31/05:00pm 15.2 15.0 12.9 86 1.3 NW 6 7 3 4 1013.8 1013.8 0.0
31/04:30pm 15.6 14.6 12.4 81 1.8 NW 9 11 5 6 1014.1 1014.1 0.0
31/04:00pm 15.6 14.7 12.7 83 1.6 NW 9 13 5 7 1014.2 1014.2 0.0
31/03:30pm 15.5 14.5 12.4 82 1.7 WNW 9 13 5 7 1014.5 1014.5 0.0
31/03:00pm 15.5 13.2 11.7 78 2.1 NW 15 19 8 10 1014.8 1014.8 0.0
31/02:30pm 16.2 13.5 11.8 75 2.4 NW 17 24 9 13 1014.9 1014.9 0.0
31/02:00pm 16.1 12.3 11.1 72 2.7 NW 22 32 12 17 1015.8 1015.8 0.0
31/01:30pm 16.0 11.6 11.6 75 2.4 NNW 26 37 14 20 1016.3 1016.3 0.0
31/01:00pm 15.7 12.1 11.9 78 2.1 NNW 22 33 12 18 1017.2 1017.3 0.0
31/12:30pm 15.3 11.2 11.5 78 2.0 N 24 35 13 19 1017.3 1017.4 0.0
31/12:00pm 14.5 11.3 11.8 84 1.5 N 20 30 11 16 1017.9 1018.0 0.0
31/11:30am 13.9 10.7 11.8 87 1.1 N 20 32 11 17 1018.7 1018.8 0.0
31/11:00am 13.6 10.2 11.3 86 1.2 NNE 20 26 11 14 1019.4 1019.5 0.0
31/10:30am 13.2 9.9 10.9 86 1.2 NNE 19 26 10 14 1019.7 1019.8 0.0
31/10:00am 12.5 9.1 10.6 88 1.0 NE 19 24 10 13 1019.8 1019.9 0.0
31/09:30am 11.8 8.2 9.9 88 1.0 NE 19 24 10 13 1019.8 1019.9 0.0
31/09:00am 11.4 8.5 9.8 90 0.8 NE 15 20 8 11 1020.0 1020.1 0.2
31/08:30am 10.3 7.2 8.9 91 0.7 NE 15 20 8 11 1020.4 1020.5 0.2
31/08:00am 9.8 6.2 8.2 90 0.8 NE 17 20 9 11 1020.4 1020.5 0.2
31/07:30am 9.3 5.9 7.6 89 0.8 ENE 15 19 8 10 1020.3 1020.4 0.2
31/07:00am 9.2 6.2 7.6 90 0.8 ENE 13 19 7 10 1020.2 1020.3 0.2
31/06:30am 8.3 5.9 7.2 93 0.5 NE 9 13 5 7 1020.6 1020.7 0.2
31/06:00am 8.1 7.6 7.8 98 0.1 CALM 0 4 0 2 1020.4 1020.5 0.2
31/05:30am 8.2 7.7 7.9 98 0.1 CALM 0 0 0 0 1020.9 1021.0 0.2
31/05:00am 8.3 7.8 8.0 98 0.1 CALM 0 0 0 0 1021.1 1021.2 0.2
31/04:30am 8.3 7.8 7.9 97 0.2 CALM 0 2 0 1 1021.1 1021.2 0.2
31/04:00am 8.4 7.9 7.8 96 0.3 CALM 0 0 0 0 1021.2 1021.3 0.2
31/03:30am 8.2 6.6 7.9 98 0.1 N 6 11 3 6 1021.3 1021.4 0.2
31/03:00am 8.3 7.5 8.2 99 0.0 SSW 2 7 1 4 1021.5 1021.6 0.2
31/02:30am 8.2 6.4 7.9 98 0.1 NNE 7 9 4 5 1021.7 1021.8 0.2
31/02:00am 8.3 7.5 8.2 99 0.0 N 2 11 1 6 1022.0 1022.1 0.2
31/01:30am 8.3 6.1 8.0 98 0.1 ESE 9 11 5 6 1021.9 1022.0 0.2
31/01:00am 8.2 7.7 7.9 98 0.1 CALM 0 0 0 0 1022.2 1022.3 0.2
31/12:30am 8.9 8.5 8.1 95 0.4 CALM 0 0 0 0 1022.5 1022.6 0.2
31/12:00am 9.4 8.0 8.9 97 0.2 S 6 9 3 5 1022.9 1023.0 0.2
 
Date/Time
CST
Temp
°C
App
Temp
°C
Dew
Point
Rel
Hum
%
Delta-T
°C
Wind Press
QNH
hPa
Press
MSL
hPa
Rain
since 9 am
mm
Dir
 
Spd
km/h
Gust
km/h
Spd
kts
Gust
kts
30/11:30pm 9.6 8.7 9.1 97 0.2 SW 4 7 2 4 1023.1 1023.2 0.2
30/11:00pm 9.5 8.4 8.4 93 0.5 SSW 4 6 2 3 1023.3 1023.4 0.2
30/10:30pm 10.1 8.1 8.7 91 0.7 SSE 9 9 5 5 1023.0 1023.1 0.2
30/10:00pm 11.0 10.9 9.3 89 0.9 CALM 0 7 0 4 1023.1 1023.2 0.2

Other Formats:

Comma delimited format used in spreadsheet applications
http://www.bom.gov.au/fwo/IDS60801/IDS60801.95663.axf

JavaScript Object Notation format (JSON) in row-major order
http://www.bom.gov.au/fwo/IDS60801/IDS60801.95663.json